sensor_id;sensor_type;location;lat;lon;timestamp;P1;durP1;ratioP1;P2;durP2;ratioP2
17596;SDS011;8917;50.942;6.946;2023-02-15T00:01:40;24.10;;;18.10;;
17596;SDS011;8917;50.942;6.946;2023-02-15T00:04:07;22.77;;;17.77;;
17596;SDS011;8917;50.942;6.946;2023-02-15T00:06:35;21.37;;;16.87;;
17596;SDS011;8917;50.942;6.946;2023-02-15T00:09:02;22.90;;;17.03;;
17596;SDS011;8917;50.942;6.946;2023-02-15T00:11:30;21.10;;;17.33;;
17596;SDS011;8917;50.942;6.946;2023-02-15T00:14:09;26.30;;;18.03;;
17596;SDS011;8917;50.942;6.946;2023-02-15T00:16:37;21.57;;;16.60;;
17596;SDS011;8917;50.942;6.946;2023-02-15T00:19:04;22.70;;;17.77;;
17596;SDS011;8917;50.942;6.946;2023-02-15T00:21:32;21.80;;;16.83;;
17596;SDS011;8917;50.942;6.946;2023-02-15T00:24:00;22.37;;;16.57;;
17596;SDS011;8917;50.942;6.946;2023-02-15T00:26:28;23.87;;;17.53;;
17596;SDS011;8917;50.942;6.946;2023-02-15T00:28:55;23.73;;;17.87;;
17596;SDS011;8917;50.942;6.946;2023-02-15T00:31:25;22.53;;;17.23;;
17596;SDS011;8917;50.942;6.946;2023-02-15T00:33:52;23.30;;;16.60;;
17596;SDS011;8917;50.942;6.946;2023-02-15T00:36:19;24.50;;;17.77;;
17596;SDS011;8917;50.942;6.946;2023-02-15T00:38:47;22.83;;;17.87;;
17596;SDS011;8917;50.942;6.946;2023-02-15T00:41:14;23.37;;;17.67;;
17596;SDS011;8917;50.942;6.946;2023-02-15T00:43:41;21.47;;;16.60;;
17596;SDS011;8917;50.942;6.946;2023-02-15T00:46:08;23.53;;;17.87;;
17596;SDS011;8917;50.942;6.946;2023-02-15T00:48:37;22.67;;;17.27;;
17596;SDS011;8917;50.942;6.946;2023-02-15T00:51:04;23.50;;;17.43;;
17596;SDS011;8917;50.942;6.946;2023-02-15T00:53:32;23.57;;;18.30;;
17596;SDS011;8917;50.942;6.946;2023-02-15T00:55:59;21.43;;;17.73;;
17596;SDS011;8917;50.942;6.946;2023-02-15T00:58:26;24.47;;;18.77;;
17596;SDS011;8917;50.942;6.946;2023-02-15T01:00:53;24.73;;;18.07;;
17596;SDS011;8917;50.942;6.946;2023-02-15T01:03:21;20.87;;;15.77;;
17596;SDS011;8917;50.942;6.946;2023-02-15T01:05:50;23.60;;;17.40;;
17596;SDS011;8917;50.942;6.946;2023-02-15T01:08:17;24.50;;;17.77;;
17596;SDS011;8917;50.942;6.946;2023-02-15T01:10:44;23.90;;;18.13;;
17596;SDS011;8917;50.942;6.946;2023-02-15T01:13:12;23.83;;;17.53;;
17596;SDS011;8917;50.942;6.946;2023-02-15T01:15:39;23.73;;;18.10;;
17596;SDS011;8917;50.942;6.946;2023-02-15T01:18:07;24.73;;;17.23;;
17596;SDS011;8917;50.942;6.946;2023-02-15T01:20:35;23.10;;;16.73;;
17596;SDS011;8917;50.942;6.946;2023-02-15T01:23:05;22.70;;;17.20;;
17596;SDS011;8917;50.942;6.946;2023-02-15T01:25:33;20.67;;;16.10;;
17596;SDS011;8917;50.942;6.946;2023-02-15T01:28:01;23.73;;;18.50;;
17596;SDS011;8917;50.942;6.946;2023-02-15T01:30:29;22.83;;;16.93;;
17596;SDS011;8917;50.942;6.946;2023-02-15T01:32:56;23.10;;;17.97;;
17596;SDS011;8917;50.942;6.946;2023-02-15T01:35:23;25.30;;;17.03;;
17596;SDS011;8917;50.942;6.946;2023-02-15T01:37:51;23.53;;;17.90;;
17596;SDS011;8917;50.942;6.946;2023-02-15T01:40:19;24.47;;;17.60;;
17596;SDS011;8917;50.942;6.946;2023-02-15T01:42:49;25.23;;;17.97;;
17596;SDS011;8917;50.942;6.946;2023-02-15T01:45:21;23.07;;;17.20;;
17596;SDS011;8917;50.942;6.946;2023-02-15T01:47:49;25.00;;;17.07;;
17596;SDS011;8917;50.942;6.946;2023-02-15T01:50:18;24.67;;;17.93;;
17596;SDS011;8917;50.942;6.946;2023-02-15T01:52:49;21.67;;;17.40;;
17596;SDS011;8917;50.942;6.946;2023-02-15T01:55:22;23.13;;;17.60;;
17596;SDS011;8917;50.942;6.946;2023-02-15T01:57:50;24.07;;;17.97;;
17596;SDS011;8917;50.942;6.946;2023-02-15T02:00:18;24.27;;;17.43;;
17596;SDS011;8917;50.942;6.946;2023-02-15T02:02:55;21.57;;;16.73;;
17596;SDS011;8917;50.942;6.946;2023-02-15T02:05:23;21.63;;;16.93;;
17596;SDS011;8917;50.942;6.946;2023-02-15T02:07:51;22.27;;;16.40;;
17596;SDS011;8917;50.942;6.946;2023-02-15T02:10:21;21.83;;;16.43;;
17596;SDS011;8917;50.942;6.946;2023-02-15T02:12:49;25.27;;;17.77;;
17596;SDS011;8917;50.942;6.946;2023-02-15T02:15:17;23.47;;;17.30;;
17596;SDS011;8917;50.942;6.946;2023-02-15T02:17:52;26.53;;;18.63;;
17596;SDS011;8917;50.942;6.946;2023-02-15T02:20:26;22.80;;;17.30;;
17596;SDS011;8917;50.942;6.946;2023-02-15T02:23:05;21.50;;;16.70;;
17596;SDS011;8917;50.942;6.946;2023-02-15T02:25:54;21.57;;;16.20;;
17596;SDS011;8917;50.942;6.946;2023-02-15T02:28:38;22.77;;;16.90;;
17596;SDS011;8917;50.942;6.946;2023-02-15T02:31:19;23.20;;;17.17;;
17596;SDS011;8917;50.942;6.946;2023-02-15T02:33:53;20.63;;;16.00;;
17596;SDS011;8917;50.942;6.946;2023-02-15T02:36:22;20.43;;;15.40;;
17596;SDS011;8917;50.942;6.946;2023-02-15T02:38:54;23.03;;;16.47;;
17596;SDS011;8917;50.942;6.946;2023-02-15T02:41:26;21.37;;;16.17;;
17596;SDS011;8917;50.942;6.946;2023-02-15T02:43:59;22.13;;;16.53;;
17596;SDS011;8917;50.942;6.946;2023-02-15T02:46:30;22.87;;;17.03;;
17596;SDS011;8917;50.942;6.946;2023-02-15T02:48:59;21.17;;;16.20;;
17596;SDS011;8917;50.942;6.946;2023-02-15T02:51:27;22.70;;;16.83;;
17596;SDS011;8917;50.942;6.946;2023-02-15T02:53:55;22.23;;;16.87;;
17596;SDS011;8917;50.942;6.946;2023-02-15T02:56:23;20.90;;;16.07;;
17596;SDS011;8917;50.942;6.946;2023-02-15T02:58:55;21.23;;;16.20;;
17596;SDS011;8917;50.942;6.946;2023-02-15T03:01:24;21.57;;;15.90;;
17596;SDS011;8917;50.942;6.946;2023-02-15T03:03:55;20.73;;;16.03;;
17596;SDS011;8917;50.942;6.946;2023-02-15T03:06:28;23.07;;;16.53;;
17596;SDS011;8917;50.942;6.946;2023-02-15T03:08:58;21.20;;;15.60;;
17596;SDS011;8917;50.942;6.946;2023-02-15T03:11:27;21.93;;;17.00;;
17596;SDS011;8917;50.942;6.946;2023-02-15T03:13:55;21.10;;;16.03;;
17596;SDS011;8917;50.942;6.946;2023-02-15T03:16:23;20.33;;;15.70;;
17596;SDS011;8917;50.942;6.946;2023-02-15T03:18:53;21.17;;;15.40;;
17596;SDS011;8917;50.942;6.946;2023-02-15T03:21:24;22.37;;;16.00;;
17596;SDS011;8917;50.942;6.946;2023-02-15T03:23:56;21.43;;;15.73;;
17596;SDS011;8917;50.942;6.946;2023-02-15T03:26:25;22.30;;;16.33;;
17596;SDS011;8917;50.942;6.946;2023-02-15T03:28:54;21.67;;;16.13;;
17596;SDS011;8917;50.942;6.946;2023-02-15T03:31:23;22.30;;;16.27;;
17596;SDS011;8917;50.942;6.946;2023-02-15T03:33:53;21.67;;;16.13;;
17596;SDS011;8917;50.942;6.946;2023-02-15T03:36:21;21.97;;;16.23;;
17596;SDS011;8917;50.942;6.946;2023-02-15T03:38:51;20.63;;;15.57;;
17596;SDS011;8917;50.942;6.946;2023-02-15T03:41:23;20.57;;;15.50;;
17596;SDS011;8917;50.942;6.946;2023-02-15T03:43:53;21.13;;;15.60;;
17596;SDS011;8917;50.942;6.946;2023-02-15T03:46:23;22.93;;;16.90;;
17596;SDS011;8917;50.942;6.946;2023-02-15T03:48:53;21.30;;;14.93;;
17596;SDS011;8917;50.942;6.946;2023-02-15T03:51:22;22.00;;;16.03;;
17596;SDS011;8917;50.942;6.946;2023-02-15T03:54:04;19.67;;;15.63;;
17596;SDS011;8917;50.942;6.946;2023-02-15T03:56:33;20.17;;;15.37;;
17596;SDS011;8917;50.942;6.946;2023-02-15T03:59:01;21.40;;;16.50;;
17596;SDS011;8917;50.942;6.946;2023-02-15T04:01:47;22.13;;;16.03;;
17596;SDS011;8917;50.942;6.946;2023-02-15T04:04:25;23.23;;;16.43;;
17596;SDS011;8917;50.942;6.946;2023-02-15T04:06:53;23.17;;;16.60;;
17596;SDS011;8917;50.942;6.946;2023-02-15T04:09:20;23.00;;;16.30;;
17596;SDS011;8917;50.942;6.946;2023-02-15T04:12:05;20.80;;;14.90;;
17596;SDS011;8917;50.942;6.946;2023-02-15T04:14:34;21.67;;;15.90;;
17596;SDS011;8917;50.942;6.946;2023-02-15T04:17:19;20.87;;;15.67;;
17596;SDS011;8917;50.942;6.946;2023-02-15T04:19:46;20.70;;;15.37;;
17596;SDS011;8917;50.942;6.946;2023-02-15T04:22:31;21.70;;;15.97;;
17596;SDS011;8917;50.942;6.946;2023-02-15T04:25:16;21.70;;;15.30;;
17596;SDS011;8917;50.942;6.946;2023-02-15T04:27:43;21.00;;;15.40;;
17596;SDS011;8917;50.942;6.946;2023-02-15T04:30:13;20.80;;;15.23;;
17596;SDS011;8917;50.942;6.946;2023-02-15T04:32:41;19.73;;;15.13;;
17596;SDS011;8917;50.942;6.946;2023-02-15T04:35:08;20.27;;;14.40;;
17596;SDS011;8917;50.942;6.946;2023-02-15T04:37:36;19.40;;;15.20;;
17596;SDS011;8917;50.942;6.946;2023-02-15T04:40:05;21.97;;;16.50;;
17596;SDS011;8917;50.942;6.946;2023-02-15T04:42:32;19.93;;;15.50;;
17596;SDS011;8917;50.942;6.946;2023-02-15T04:45:00;20.20;;;15.47;;
17596;SDS011;8917;50.942;6.946;2023-02-15T04:47:28;20.10;;;14.93;;
17596;SDS011;8917;50.942;6.946;2023-02-15T04:49:55;20.77;;;15.50;;
17596;SDS011;8917;50.942;6.946;2023-02-15T04:52:22;20.70;;;15.57;;
17596;SDS011;8917;50.942;6.946;2023-02-15T04:54:50;20.13;;;15.10;;
17596;SDS011;8917;50.942;6.946;2023-02-15T04:57:17;20.80;;;15.30;;
17596;SDS011;8917;50.942;6.946;2023-02-15T04:59:44;20.67;;;15.37;;
17596;SDS011;8917;50.942;6.946;2023-02-15T05:02:11;21.90;;;15.37;;
17596;SDS011;8917;50.942;6.946;2023-02-15T05:04:40;20.27;;;14.60;;
17596;SDS011;8917;50.942;6.946;2023-02-15T05:07:07;23.70;;;15.80;;
17596;SDS011;8917;50.942;6.946;2023-02-15T05:09:34;18.13;;;14.57;;
17596;SDS011;8917;50.942;6.946;2023-02-15T05:12:01;18.80;;;14.53;;
17596;SDS011;8917;50.942;6.946;2023-02-15T05:14:28;20.47;;;14.80;;
17596;SDS011;8917;50.942;6.946;2023-02-15T05:16:55;20.63;;;14.83;;
17596;SDS011;8917;50.942;6.946;2023-02-15T05:19:25;20.20;;;14.57;;
17596;SDS011;8917;50.942;6.946;2023-02-15T05:21:54;20.27;;;14.03;;
17596;SDS011;8917;50.942;6.946;2023-02-15T05:24:21;18.80;;;14.27;;
17596;SDS011;8917;50.942;6.946;2023-02-15T05:27:07;19.53;;;14.03;;
17596;SDS011;8917;50.942;6.946;2023-02-15T05:29:52;18.90;;;13.87;;
17596;SDS011;8917;50.942;6.946;2023-02-15T05:32:19;19.77;;;14.70;;
17596;SDS011;8917;50.942;6.946;2023-02-15T05:34:46;20.97;;;14.67;;
17596;SDS011;8917;50.942;6.946;2023-02-15T05:37:15;19.27;;;14.37;;
17596;SDS011;8917;50.942;6.946;2023-02-15T05:39:42;18.40;;;13.90;;
17596;SDS011;8917;50.942;6.946;2023-02-15T05:42:09;19.50;;;14.50;;
17596;SDS011;8917;50.942;6.946;2023-02-15T05:44:36;18.90;;;13.70;;
17596;SDS011;8917;50.942;6.946;2023-02-15T05:47:04;18.80;;;13.47;;
17596;SDS011;8917;50.942;6.946;2023-02-15T05:49:32;21.63;;;15.33;;
17596;SDS011;8917;50.942;6.946;2023-02-15T05:51:59;19.77;;;14.80;;
17596;SDS011;8917;50.942;6.946;2023-02-15T05:54:28;22.10;;;14.87;;
17596;SDS011;8917;50.942;6.946;2023-02-15T05:56:55;19.57;;;14.60;;
17596;SDS011;8917;50.942;6.946;2023-02-15T05:59:23;22.80;;;14.10;;
17596;SDS011;8917;50.942;6.946;2023-02-15T06:01:50;20.13;;;13.87;;
17596;SDS011;8917;50.942;6.946;2023-02-15T06:04:17;20.13;;;14.20;;
17596;SDS011;8917;50.942;6.946;2023-02-15T06:06:44;18.80;;;14.00;;
17596;SDS011;8917;50.942;6.946;2023-02-15T06:09:11;20.77;;;14.37;;
17596;SDS011;8917;50.942;6.946;2023-02-15T06:11:40;18.70;;;14.10;;
17596;SDS011;8917;50.942;6.946;2023-02-15T06:14:07;19.10;;;14.37;;
17596;SDS011;8917;50.942;6.946;2023-02-15T06:16:34;19.77;;;14.47;;
17596;SDS011;8917;50.942;6.946;2023-02-15T06:19:02;20.00;;;13.47;;
17596;SDS011;8917;50.942;6.946;2023-02-15T06:21:29;19.23;;;14.10;;
17596;SDS011;8917;50.942;6.946;2023-02-15T06:23:57;17.57;;;12.03;;
17596;SDS011;8917;50.942;6.946;2023-02-15T06:26:24;17.80;;;13.63;;
17596;SDS011;8917;50.942;6.946;2023-02-15T06:28:53;17.43;;;13.77;;
17596;SDS011;8917;50.942;6.946;2023-02-15T06:31:20;20.07;;;13.97;;
17596;SDS011;8917;50.942;6.946;2023-02-15T06:33:47;19.33;;;13.53;;
17596;SDS011;8917;50.942;6.946;2023-02-15T06:36:14;19.30;;;13.60;;
17596;SDS011;8917;50.942;6.946;2023-02-15T06:38:41;21.10;;;13.83;;
17596;SDS011;8917;50.942;6.946;2023-02-15T06:41:09;17.93;;;13.17;;
17596;SDS011;8917;50.942;6.946;2023-02-15T06:43:36;16.83;;;12.73;;
17596;SDS011;8917;50.942;6.946;2023-02-15T06:46:04;17.20;;;12.33;;
17596;SDS011;8917;50.942;6.946;2023-02-15T06:48:31;17.40;;;12.57;;
17596;SDS011;8917;50.942;6.946;2023-02-15T06:50:59;18.97;;;13.47;;
17596;SDS011;8917;50.942;6.946;2023-02-15T06:53:26;17.00;;;12.70;;
17596;SDS011;8917;50.942;6.946;2023-02-15T06:55:59;20.83;;;13.83;;
17596;SDS011;8917;50.942;6.946;2023-02-15T06:58:27;18.50;;;12.83;;
17596;SDS011;8917;50.942;6.946;2023-02-15T07:00:54;18.83;;;13.37;;
17596;SDS011;8917;50.942;6.946;2023-02-15T07:03:23;17.33;;;12.43;;
17596;SDS011;8917;50.942;6.946;2023-02-15T07:05:53;18.07;;;13.07;;
17596;SDS011;8917;50.942;6.946;2023-02-15T07:08:21;16.00;;;12.40;;
17596;SDS011;8917;50.942;6.946;2023-02-15T07:10:48;16.13;;;12.20;;
17596;SDS011;8917;50.942;6.946;2023-02-15T07:13:15;18.33;;;12.57;;
17596;SDS011;8917;50.942;6.946;2023-02-15T07:15:42;16.83;;;12.57;;
17596;SDS011;8917;50.942;6.946;2023-02-15T07:18:09;15.87;;;12.70;;
17596;SDS011;8917;50.942;6.946;2023-02-15T07:20:38;15.93;;;12.40;;
17596;SDS011;8917;50.942;6.946;2023-02-15T07:23:06;16.50;;;12.77;;
17596;SDS011;8917;50.942;6.946;2023-02-15T07:25:34;16.17;;;13.13;;
17596;SDS011;8917;50.942;6.946;2023-02-15T07:28:02;16.30;;;12.43;;
17596;SDS011;8917;50.942;6.946;2023-02-15T07:30:29;16.77;;;13.03;;
17596;SDS011;8917;50.942;6.946;2023-02-15T07:32:57;15.67;;;12.57;;
17596;SDS011;8917;50.942;6.946;2023-02-15T07:35:47;15.97;;;12.73;;
17596;SDS011;8917;50.942;6.946;2023-02-15T07:38:15;15.03;;;12.03;;
17596;SDS011;8917;50.942;6.946;2023-02-15T07:40:42;16.80;;;12.60;;
17596;SDS011;8917;50.942;6.946;2023-02-15T07:43:09;18.73;;;11.97;;
17596;SDS011;8917;50.942;6.946;2023-02-15T07:45:37;18.07;;;12.70;;
17596;SDS011;8917;50.942;6.946;2023-02-15T07:48:05;14.50;;;12.00;;
17596;SDS011;8917;50.942;6.946;2023-02-15T07:50:32;14.20;;;11.53;;
17596;SDS011;8917;50.942;6.946;2023-02-15T07:53:02;17.47;;;12.67;;
17596;SDS011;8917;50.942;6.946;2023-02-15T07:55:30;15.07;;;11.90;;
17596;SDS011;8917;50.942;6.946;2023-02-15T07:57:57;14.80;;;11.87;;
17596;SDS011;8917;50.942;6.946;2023-02-15T08:00:24;14.87;;;12.40;;
17596;SDS011;8917;50.942;6.946;2023-02-15T08:02:53;14.40;;;11.30;;
17596;SDS011;8917;50.942;6.946;2023-02-15T08:05:38;16.63;;;11.70;;
17596;SDS011;8917;50.942;6.946;2023-02-15T08:08:07;16.53;;;12.37;;
17596;SDS011;8917;50.942;6.946;2023-02-15T08:10:56;15.27;;;11.80;;
17596;SDS011;8917;50.942;6.946;2023-02-15T08:13:42;16.53;;;12.03;;
17596;SDS011;8917;50.942;6.946;2023-02-15T08:16:18;14.50;;;11.40;;
17596;SDS011;8917;50.942;6.946;2023-02-15T08:18:46;15.60;;;11.47;;
17596;SDS011;8917;50.942;6.946;2023-02-15T08:21:13;14.50;;;11.40;;
17596;SDS011;8917;50.942;6.946;2023-02-15T08:23:42;13.17;;;11.63;;
17596;SDS011;8917;50.942;6.946;2023-02-15T08:26:10;14.80;;;11.53;;
17596;SDS011;8917;50.942;6.946;2023-02-15T08:28:37;15.83;;;11.93;;
17596;SDS011;8917;50.942;6.946;2023-02-15T08:31:05;17.80;;;13.13;;
17596;SDS011;8917;50.942;6.946;2023-02-15T08:33:32;15.77;;;11.93;;
17596;SDS011;8917;50.942;6.946;2023-02-15T08:36:02;14.93;;;11.47;;
17596;SDS011;8917;50.942;6.946;2023-02-15T08:38:29;14.50;;;11.93;;
17596;SDS011;8917;50.942;6.946;2023-02-15T08:40:58;15.27;;;11.33;;
17596;SDS011;8917;50.942;6.946;2023-02-15T08:43:25;15.07;;;11.73;;
17596;SDS011;8917;50.942;6.946;2023-02-15T08:45:53;14.30;;;11.53;;
17596;SDS011;8917;50.942;6.946;2023-02-15T08:48:20;16.00;;;12.13;;
17596;SDS011;8917;50.942;6.946;2023-02-15T08:50:47;15.13;;;11.70;;
17596;SDS011;8917;50.942;6.946;2023-02-15T08:53:14;14.20;;;11.37;;
17596;SDS011;8917;50.942;6.946;2023-02-15T08:55:45;13.93;;;11.00;;
17596;SDS011;8917;50.942;6.946;2023-02-15T08:58:13;14.27;;;11.27;;
17596;SDS011;8917;50.942;6.946;2023-02-15T09:00:40;15.43;;;11.67;;
17596;SDS011;8917;50.942;6.946;2023-02-15T09:03:08;16.20;;;11.07;;
17596;SDS011;8917;50.942;6.946;2023-02-15T09:05:35;16.43;;;12.10;;
17596;SDS011;8917;50.942;6.946;2023-02-15T09:08:03;15.73;;;11.13;;
17596;SDS011;8917;50.942;6.946;2023-02-15T09:10:30;15.47;;;11.63;;
17596;SDS011;8917;50.942;6.946;2023-02-15T09:12:57;16.37;;;11.20;;
17596;SDS011;8917;50.942;6.946;2023-02-15T09:15:25;15.93;;;11.63;;
17596;SDS011;8917;50.942;6.946;2023-02-15T09:17:53;14.40;;;11.00;;
17596;SDS011;8917;50.942;6.946;2023-02-15T09:20:20;13.83;;;10.87;;
17596;SDS011;8917;50.942;6.946;2023-02-15T09:22:49;15.70;;;11.60;;
17596;SDS011;8917;50.942;6.946;2023-02-15T09:25:19;14.47;;;11.03;;
17596;SDS011;8917;50.942;6.946;2023-02-15T09:27:46;14.70;;;10.63;;
17596;SDS011;8917;50.942;6.946;2023-02-15T09:30:13;14.77;;;11.37;;
17596;SDS011;8917;50.942;6.946;2023-02-15T09:32:42;15.63;;;10.90;;
17596;SDS011;8917;50.942;6.946;2023-02-15T09:35:11;17.07;;;12.10;;
17596;SDS011;8917;50.942;6.946;2023-02-15T09:37:38;13.13;;;10.87;;
17596;SDS011;8917;50.942;6.946;2023-02-15T09:40:05;14.17;;;11.07;;
17596;SDS011;8917;50.942;6.946;2023-02-15T09:42:36;25.73;;;22.07;;
17596;SDS011;8917;50.942;6.946;2023-02-15T09:45:16;13.00;;;10.73;;
17596;SDS011;8917;50.942;6.946;2023-02-15T09:48:01;13.93;;;10.90;;
17596;SDS011;8917;50.942;6.946;2023-02-15T09:50:33;16.83;;;11.80;;
17596;SDS011;8917;50.942;6.946;2023-02-15T09:53:13;15.33;;;11.60;;
17596;SDS011;8917;50.942;6.946;2023-02-15T09:55:48;14.47;;;11.30;;
17596;SDS011;8917;50.942;6.946;2023-02-15T09:58:20;15.20;;;11.23;;
17596;SDS011;8917;50.942;6.946;2023-02-15T10:00:52;13.63;;;10.73;;
17596;SDS011;8917;50.942;6.946;2023-02-15T10:03:30;14.27;;;10.77;;
17596;SDS011;8917;50.942;6.946;2023-02-15T10:06:05;13.77;;;10.77;;
17596;SDS011;8917;50.942;6.946;2023-02-15T10:08:45;14.27;;;10.77;;
17596;SDS011;8917;50.942;6.946;2023-02-15T10:11:15;14.47;;;11.13;;
17596;SDS011;8917;50.942;6.946;2023-02-15T10:14:12;14.93;;;10.93;;
17596;SDS011;8917;50.942;6.946;2023-02-15T10:16:45;15.73;;;11.60;;
17596;SDS011;8917;50.942;6.946;2023-02-15T10:19:16;16.23;;;11.03;;
17596;SDS011;8917;50.942;6.946;2023-02-15T10:21:51;17.30;;;11.37;;
17596;SDS011;8917;50.942;6.946;2023-02-15T10:24:27;11.90;;;10.20;;
17596;SDS011;8917;50.942;6.946;2023-02-15T10:26:58;13.40;;;10.87;;
17596;SDS011;8917;50.942;6.946;2023-02-15T10:29:31;14.63;;;10.93;;
17596;SDS011;8917;50.942;6.946;2023-02-15T10:32:04;15.33;;;11.23;;
17596;SDS011;8917;50.942;6.946;2023-02-15T10:34:35;14.23;;;11.00;;
17596;SDS011;8917;50.942;6.946;2023-02-15T10:37:23;16.00;;;10.97;;
17596;SDS011;8917;50.942;6.946;2023-02-15T10:39:57;15.60;;;10.83;;
17596;SDS011;8917;50.942;6.946;2023-02-15T10:42:28;13.37;;;11.00;;
17596;SDS011;8917;50.942;6.946;2023-02-15T10:45:01;14.70;;;10.97;;
17596;SDS011;8917;50.942;6.946;2023-02-15T10:47:35;12.10;;;10.50;;
17596;SDS011;8917;50.942;6.946;2023-02-15T10:50:20;13.67;;;10.70;;
17596;SDS011;8917;50.942;6.946;2023-02-15T10:52:54;16.83;;;11.47;;
17596;SDS011;8917;50.942;6.946;2023-02-15T10:55:29;14.03;;;10.97;;
17596;SDS011;8917;50.942;6.946;2023-02-15T10:58:03;13.33;;;10.10;;
17596;SDS011;8917;50.942;6.946;2023-02-15T11:00:36;14.37;;;10.60;;
17596;SDS011;8917;50.942;6.946;2023-02-15T11:03:16;16.17;;;11.07;;
17596;SDS011;8917;50.942;6.946;2023-02-15T11:05:51;16.60;;;11.07;;
17596;SDS011;8917;50.942;6.946;2023-02-15T11:08:25;15.70;;;10.60;;
17596;SDS011;8917;50.942;6.946;2023-02-15T11:10:54;16.20;;;11.50;;
17596;SDS011;8917;50.942;6.946;2023-02-15T11:13:22;14.80;;;10.43;;
17596;SDS011;8917;50.942;6.946;2023-02-15T11:15:51;16.23;;;11.40;;
17596;SDS011;8917;50.942;6.946;2023-02-15T11:18:22;14.77;;;11.23;;
17596;SDS011;8917;50.942;6.946;2023-02-15T11:20:53;12.73;;;10.20;;
17596;SDS011;8917;50.942;6.946;2023-02-15T11:23:20;14.17;;;11.40;;
17596;SDS011;8917;50.942;6.946;2023-02-15T11:25:52;16.67;;;11.17;;
17596;SDS011;8917;50.942;6.946;2023-02-15T11:28:22;16.83;;;11.30;;
17596;SDS011;8917;50.942;6.946;2023-02-15T11:30:53;11.67;;;10.03;;
17596;SDS011;8917;50.942;6.946;2023-02-15T11:33:22;15.47;;;11.37;;
17596;SDS011;8917;50.942;6.946;2023-02-15T11:35:51;13.67;;;10.63;;
17596;SDS011;8917;50.942;6.946;2023-02-15T11:38:21;13.00;;;10.50;;
17596;SDS011;8917;50.942;6.946;2023-02-15T11:40:51;14.30;;;11.17;;
17596;SDS011;8917;50.942;6.946;2023-02-15T11:43:22;13.23;;;10.67;;
17596;SDS011;8917;50.942;6.946;2023-02-15T11:45:51;16.87;;;11.30;;
17596;SDS011;8917;50.942;6.946;2023-02-15T11:48:19;22.50;;;13.13;;
17596;SDS011;8917;50.942;6.946;2023-02-15T11:50:47;13.67;;;10.90;;
17596;SDS011;8917;50.942;6.946;2023-02-15T11:53:15;14.13;;;10.83;;
17596;SDS011;8917;50.942;6.946;2023-02-15T11:55:44;14.97;;;10.27;;
17596;SDS011;8917;50.942;6.946;2023-02-15T11:58:14;15.60;;;11.00;;
17596;SDS011;8917;50.942;6.946;2023-02-15T12:00:44;13.57;;;10.77;;
17596;SDS011;8917;50.942;6.946;2023-02-15T12:03:14;15.67;;;11.50;;
17596;SDS011;8917;50.942;6.946;2023-02-15T12:05:44;15.07;;;11.80;;
17596;SDS011;8917;50.942;6.946;2023-02-15T12:08:13;12.07;;;9.67;;
17596;SDS011;8917;50.942;6.946;2023-02-15T12:10:44;14.43;;;11.27;;
17596;SDS011;8917;50.942;6.946;2023-02-15T12:13:18;14.53;;;10.67;;
17596;SDS011;8917;50.942;6.946;2023-02-15T12:15:47;13.57;;;10.80;;
17596;SDS011;8917;50.942;6.946;2023-02-15T12:18:19;16.07;;;11.97;;
17596;SDS011;8917;50.942;6.946;2023-02-15T12:20:47;13.57;;;10.80;;
17596;SDS011;8917;50.942;6.946;2023-02-15T12:23:16;18.03;;;11.97;;
17596;SDS011;8917;50.942;6.946;2023-02-15T12:25:50;14.77;;;10.47;;
17596;SDS011;8917;50.942;6.946;2023-02-15T12:28:24;16.47;;;11.97;;
17596;SDS011;8917;50.942;6.946;2023-02-15T12:30:52;18.80;;;11.47;;
17596;SDS011;8917;50.942;6.946;2023-02-15T12:33:23;15.50;;;11.87;;
17596;SDS011;8917;50.942;6.946;2023-02-15T12:35:54;14.87;;;11.47;;
17596;SDS011;8917;50.942;6.946;2023-02-15T12:38:24;15.10;;;11.13;;
17596;SDS011;8917;50.942;6.946;2023-02-15T12:41:00;16.70;;;11.87;;
17596;SDS011;8917;50.942;6.946;2023-02-15T12:43:30;15.17;;;10.90;;
17596;SDS011;8917;50.942;6.946;2023-02-15T12:46:19;13.87;;;11.30;;
17596;SDS011;8917;50.942;6.946;2023-02-15T12:48:51;13.50;;;10.37;;
17596;SDS011;8917;50.942;6.946;2023-02-15T12:51:37;15.80;;;11.63;;
17596;SDS011;8917;50.942;6.946;2023-02-15T12:54:15;15.80;;;12.47;;
17596;SDS011;8917;50.942;6.946;2023-02-15T12:56:44;15.50;;;10.90;;
17596;SDS011;8917;50.942;6.946;2023-02-15T12:59:12;16.50;;;11.00;;
17596;SDS011;8917;50.942;6.946;2023-02-15T13:01:41;13.80;;;11.23;;
17596;SDS011;8917;50.942;6.946;2023-02-15T13:04:14;13.83;;;10.77;;
17596;SDS011;8917;50.942;6.946;2023-02-15T13:06:46;13.83;;;10.80;;
17596;SDS011;8917;50.942;6.946;2023-02-15T13:09:14;13.63;;;11.00;;
17596;SDS011;8917;50.942;6.946;2023-02-15T13:11:44;15.23;;;10.70;;
17596;SDS011;8917;50.942;6.946;2023-02-15T13:14:16;14.00;;;11.03;;
17596;SDS011;8917;50.942;6.946;2023-02-15T13:16:44;17.30;;;11.80;;
17596;SDS011;8917;50.942;6.946;2023-02-15T13:19:12;16.40;;;11.53;;
17596;SDS011;8917;50.942;6.946;2023-02-15T13:21:43;15.40;;;11.47;;
17596;SDS011;8917;50.942;6.946;2023-02-15T13:24:15;13.77;;;10.67;;
17596;SDS011;8917;50.942;6.946;2023-02-15T13:26:46;14.47;;;10.17;;
17596;SDS011;8917;50.942;6.946;2023-02-15T13:29:15;13.77;;;11.37;;
17596;SDS011;8917;50.942;6.946;2023-02-15T13:31:44;14.83;;;11.17;;
17596;SDS011;8917;50.942;6.946;2023-02-15T13:34:17;18.93;;;11.40;;
17596;SDS011;8917;50.942;6.946;2023-02-15T13:36:49;15.00;;;11.17;;
17596;SDS011;8917;50.942;6.946;2023-02-15T13:39:21;15.77;;;11.00;;
17596;SDS011;8917;50.942;6.946;2023-02-15T13:41:56;14.77;;;10.70;;
17596;SDS011;8917;50.942;6.946;2023-02-15T13:44:31;15.20;;;11.57;;
17596;SDS011;8917;50.942;6.946;2023-02-15T13:47:07;16.40;;;11.60;;
17596;SDS011;8917;50.942;6.946;2023-02-15T13:49:40;16.10;;;11.00;;
17596;SDS011;8917;50.942;6.946;2023-02-15T13:52:13;15.00;;;10.33;;
17596;SDS011;8917;50.942;6.946;2023-02-15T13:54:46;16.53;;;11.30;;
17596;SDS011;8917;50.942;6.946;2023-02-15T13:57:24;12.77;;;10.53;;
17596;SDS011;8917;50.942;6.946;2023-02-15T13:59:58;14.70;;;10.03;;
17596;SDS011;8917;50.942;6.946;2023-02-15T14:02:36;14.53;;;11.43;;
17596;SDS011;8917;50.942;6.946;2023-02-15T14:05:15;16.00;;;10.57;;
17596;SDS011;8917;50.942;6.946;2023-02-15T14:07:54;14.73;;;10.97;;
17596;SDS011;8917;50.942;6.946;2023-02-15T14:10:29;13.80;;;9.83;;
17596;SDS011;8917;50.942;6.946;2023-02-15T14:13:05;13.07;;;9.80;;
17596;SDS011;8917;50.942;6.946;2023-02-15T14:15:41;13.77;;;10.10;;
17596;SDS011;8917;50.942;6.946;2023-02-15T14:18:12;15.17;;;10.10;;
17596;SDS011;8917;50.942;6.946;2023-02-15T14:20:47;19.37;;;11.13;;
17596;SDS011;8917;50.942;6.946;2023-02-15T14:23:21;12.47;;;10.50;;
17596;SDS011;8917;50.942;6.946;2023-02-15T14:25:55;15.23;;;10.80;;
17596;SDS011;8917;50.942;6.946;2023-02-15T14:28:27;12.30;;;10.73;;
17596;SDS011;8917;50.942;6.946;2023-02-15T14:30:55;13.70;;;10.10;;
17596;SDS011;8917;50.942;6.946;2023-02-15T14:33:28;13.63;;;10.23;;
17596;SDS011;8917;50.942;6.946;2023-02-15T14:35:56;14.03;;;10.73;;
17596;SDS011;8917;50.942;6.946;2023-02-15T14:38:30;14.70;;;11.17;;
17596;SDS011;8917;50.942;6.946;2023-02-15T14:41:01;13.07;;;10.13;;
17596;SDS011;8917;50.942;6.946;2023-02-15T14:43:37;12.27;;;10.07;;
17596;SDS011;8917;50.942;6.946;2023-02-15T14:46:10;12.00;;;9.30;;
17596;SDS011;8917;50.942;6.946;2023-02-15T14:48:42;14.20;;;10.47;;
17596;SDS011;8917;50.942;6.946;2023-02-15T14:51:25;14.03;;;10.80;;
17596;SDS011;8917;50.942;6.946;2023-02-15T14:54:52;12.50;;;9.87;;
17596;SDS011;8917;50.942;6.946;2023-02-15T14:59:43;13.90;;;10.50;;